createdAt,value
2019-01-25T00:02:46.931Z,13.17
2019-01-25T00:07:51.752Z,13.73
2019-01-25T00:12:56.531Z,13.77
2019-01-25T00:18:01.360Z,12.73
2019-01-25T00:23:06.153Z,14.55
2019-01-25T00:28:10.949Z,13.63
2019-01-25T00:33:15.654Z,13.97
2019-01-25T00:38:20.487Z,13.77
2019-01-25T00:43:25.202Z,13.72
2019-01-25T00:48:30.031Z,13.67
2019-01-25T00:53:34.839Z,13.70
2019-01-25T00:58:39.540Z,12.80
2019-01-25T01:03:44.440Z,12.90
2019-01-25T01:08:49.216Z,12.87
2019-01-25T01:13:53.922Z,13.23
2019-01-25T01:18:58.693Z,12.47
2019-01-25T01:24:03.488Z,12.10
2019-01-25T01:29:08.262Z,13.63
2019-01-25T01:34:13.031Z,13.13
2019-01-25T01:39:17.724Z,13.23
2019-01-25T01:44:22.456Z,13.03
2019-01-25T01:49:27.161Z,12.90
2019-01-25T01:54:31.851Z,12.80
2019-01-25T01:59:36.572Z,13.93
2019-01-25T02:04:41.383Z,13.07
2019-01-25T02:09:46.097Z,13.50
2019-01-25T02:14:50.809Z,12.07
2019-01-25T02:19:55.549Z,12.97
2019-01-25T02:25:00.261Z,13.07
2019-01-25T02:30:08.303Z,13.50
2019-01-25T02:35:13.099Z,12.50
2019-01-25T02:40:19.868Z,13.93
2019-01-25T02:45:24.654Z,14.43
2019-01-25T02:50:29.374Z,13.37
2019-01-25T02:55:34.153Z,13.47
2019-01-25T03:00:39.003Z,13.40
2019-01-25T03:05:43.753Z,13.35
2019-01-25T03:10:48.680Z,12.10
2019-01-25T03:15:53.368Z,13.40
2019-01-25T03:20:58.150Z,13.37
2019-01-25T03:26:02.940Z,13.47
2019-01-25T03:31:07.682Z,13.03
2019-01-25T03:36:12.426Z,12.83
2019-01-25T03:41:17.286Z,13.93
2019-01-25T03:46:22.091Z,13.13
2019-01-25T03:51:26.794Z,12.73
2019-01-25T03:56:31.483Z,13.50
2019-01-25T04:01:36.316Z,12.47
2019-01-25T04:06:40.962Z,12.80
2019-01-25T04:11:45.731Z,13.43
2019-01-25T04:16:50.503Z,11.63
2019-01-25T04:21:55.215Z,13.03
2019-01-25T04:27:00.034Z,12.77
2019-01-25T04:32:04.946Z,13.50
2019-01-25T04:37:09.806Z,12.83
2019-01-25T04:42:14.506Z,12.87
2019-01-25T04:47:26.671Z,13.17
2019-01-25T04:52:31.466Z,12.47
2019-01-25T04:57:36.158Z,12.73
2019-01-25T05:02:40.946Z,13.33
2019-01-25T05:07:45.724Z,12.87
2019-01-25T05:12:53.931Z,13.63
2019-01-25T05:17:58.736Z,12.63
2019-01-25T05:23:03.792Z,13.50
2019-01-25T05:28:16.803Z,13.70
2019-01-25T05:33:21.647Z,13.73
2019-01-25T05:38:27.392Z,12.63
2019-01-25T05:43:42.785Z,13.53
2019-01-25T05:48:47.517Z,13.47
2019-01-25T05:53:53.116Z,13.73
2019-01-25T05:58:57.822Z,13.20
2019-01-25T06:04:02.596Z,12.47
2019-01-25T06:09:08.542Z,13.97
2019-01-25T06:14:15.437Z,13.53
2019-01-25T06:19:20.213Z,12.47
2019-01-25T06:24:24.945Z,13.67
2019-01-25T06:29:33.065Z,12.97
2019-01-25T06:34:37.883Z,14.80
2019-01-25T06:39:42.643Z,13.40
2019-01-25T06:44:47.339Z,13.70
2019-01-25T06:49:52.156Z,12.97
2019-01-25T06:54:56.944Z,13.40
2019-01-25T07:00:01.662Z,11.93
2019-01-25T07:05:07.478Z,12.77
2019-01-25T07:10:15.829Z,13.10
2019-01-25T07:15:22.785Z,12.70
2019-01-25T07:20:27.484Z,13.87
2019-01-25T07:25:32.407Z,12.97
2019-01-25T07:30:37.304Z,13.07
2019-01-25T07:35:41.991Z,12.63
2019-01-25T07:40:46.874Z,12.37
2019-01-25T07:45:51.600Z,13.20
2019-01-25T07:50:56.320Z,14.13
2019-01-25T07:56:01.163Z,12.57
2019-01-25T08:01:06.034Z,13.27
2019-01-25T08:06:10.828Z,13.62
2019-01-25T08:11:15.770Z,14.40
2019-01-25T08:16:20.505Z,14.13
2019-01-25T08:21:25.215Z,16.60
2019-01-25T08:26:29.999Z,17.70
2019-01-25T08:31:34.765Z,17.23
2019-01-25T08:36:39.527Z,18.97
2019-01-25T08:41:44.234Z,17.37
2019-01-25T08:46:48.966Z,16.93
2019-01-25T08:51:53.807Z,16.57
2019-01-25T08:56:58.594Z,15.90
2019-01-25T09:02:03.455Z,17.65
2019-01-25T09:07:08.249Z,16.27
2019-01-25T09:12:13.024Z,16.70
2019-01-25T09:17:17.709Z,17.13
2019-01-25T09:22:22.450Z,17.27
2019-01-25T09:27:27.141Z,16.53
2019-01-25T09:32:31.913Z,18.37
2019-01-25T09:37:36.716Z,16.73
2019-01-25T09:42:41.420Z,17.53
2019-01-25T09:47:46.116Z,16.63
2019-01-25T09:52:50.891Z,18.13
2019-01-25T09:57:56.325Z,17.37
2019-01-25T10:03:02.007Z,19.33
2019-01-25T10:08:06.869Z,19.17
2019-01-25T10:13:11.583Z,20.53
2019-01-25T10:18:16.275Z,20.43
2019-01-25T10:23:20.975Z,19.03
2019-01-25T10:28:25.676Z,20.33
2019-01-25T10:33:30.362Z,20.13
2019-01-25T10:38:35.137Z,20.20
2019-01-25T10:43:39.820Z,21.17
2019-01-25T10:48:44.527Z,20.67
2019-01-25T10:53:49.236Z,20.57
2019-01-25T10:58:53.961Z,21.10
2019-01-25T11:03:58.684Z,21.40
2019-01-25T11:09:04.937Z,21.93
2019-01-25T11:14:09.792Z,21.10
2019-01-25T11:19:14.492Z,21.27
2019-01-25T11:24:20.162Z,18.70
2019-01-25T11:29:25.022Z,18.60
2019-01-25T11:34:33.108Z,17.53
2019-01-25T11:39:36.154Z,17.80
2019-01-25T11:44:42.109Z,18.90
2019-01-25T11:49:46.936Z,17.03
2019-01-25T11:54:51.755Z,16.67
2019-01-25T11:59:56.630Z,15.40
2019-01-25T12:05:01.394Z,17.13
2019-01-25T12:10:08.230Z,16.20
2019-01-25T12:15:16.104Z,15.50
2019-01-25T12:20:28.408Z,16.43
2019-01-25T12:25:33.360Z,16.60
2019-01-25T12:30:39.494Z,15.73
2019-01-25T12:35:44.997Z,16.90
2019-01-25T12:40:49.739Z,18.10
2019-01-25T12:45:54.491Z,17.20
2019-01-25T12:51:18.456Z,16.27
2019-01-25T12:56:23.182Z,15.13
2019-01-25T13:01:29.648Z,15.87
2019-01-25T13:06:34.587Z,15.20
2019-01-25T13:11:39.488Z,14.93
2019-01-25T13:16:44.364Z,16.23
2019-01-25T13:21:49.547Z,15.83
2019-01-25T13:26:54.399Z,15.85
2019-01-25T13:32:00.950Z,16.33
2019-01-25T13:37:05.969Z,16.90
2019-01-25T13:42:10.928Z,16.03
2019-01-25T13:47:15.739Z,17.33
2019-01-25T13:52:20.485Z,16.57
2019-01-25T13:57:25.261Z,17.57
2019-01-25T14:02:30.134Z,18.10
2019-01-25T14:07:35.045Z,17.90
2019-01-25T14:12:39.886Z,19.40
2019-01-25T14:17:44.710Z,18.07
2019-01-25T14:22:50.509Z,18.63
2019-01-25T14:27:55.563Z,17.80
2019-01-25T14:33:00.490Z,16.73
2019-01-25T14:38:06.160Z,17.60
2019-01-25T14:43:11.731Z,17.97
2019-01-25T14:48:16.540Z,18.30
2019-01-25T14:53:21.342Z,16.83
2019-01-25T14:58:26.051Z,15.98
2019-01-25T15:03:30.835Z,16.93
2019-01-25T15:08:35.581Z,17.52
2019-01-25T15:13:40.445Z,17.33
2019-01-25T15:18:45.219Z,17.77
2019-01-25T15:23:49.968Z,18.63
2019-01-25T15:28:54.945Z,21.17
2019-01-25T15:33:59.825Z,21.73
2019-01-25T15:39:07.280Z,18.80
2019-01-25T15:44:12.164Z,19.73
2019-01-25T15:49:18.941Z,18.57
2019-01-25T15:54:23.861Z,18.33
2019-01-25T15:59:29.209Z,19.83
2019-01-25T16:04:34.974Z,17.00
2019-01-25T16:09:41.276Z,19.77
2019-01-25T16:14:46.059Z,19.77
2019-01-25T16:19:52.225Z,20.13
2019-01-25T16:24:57.271Z,18.93
2019-01-25T16:30:02.222Z,19.33
2019-01-25T16:35:07.702Z,19.37
2019-01-25T16:40:15.818Z,19.67
2019-01-25T16:45:23.803Z,18.53
2019-01-25T16:50:29.195Z,19.57
2019-01-25T16:55:34.519Z,21.30
2019-01-25T17:00:47.440Z,20.60
2019-01-25T17:05:52.896Z,20.00
2019-01-25T17:10:57.761Z,20.00
2019-01-25T17:16:02.542Z,17.23
2019-01-25T17:21:07.391Z,20.40
2019-01-25T17:26:12.247Z,20.57
2019-01-25T17:31:17.839Z,18.07
2019-01-25T17:36:23.455Z,18.47
2019-01-25T17:41:28.815Z,17.80
2019-01-25T17:46:34.068Z,15.87
2019-01-25T17:51:39.129Z,15.07
2019-01-25T17:56:44.140Z,14.10
2019-01-25T18:01:49.741Z,13.17
2019-01-25T18:06:54.979Z,11.17
2019-01-25T18:12:00.183Z,9.70
2019-01-25T18:17:05.664Z,10.43
2019-01-25T18:22:11.226Z,9.70
2019-01-25T18:27:16.829Z,8.37
2019-01-25T18:32:22.984Z,9.37
2019-01-25T18:37:28.724Z,8.47
2019-01-25T18:42:35.463Z,8.30
2019-01-25T18:47:41.340Z,10.60
2019-01-25T18:52:47.168Z,9.73
2019-01-25T18:57:53.760Z,10.30
2019-01-25T19:02:59.842Z,9.97
2019-01-25T19:08:06.567Z,10.33
2019-01-25T19:13:13.047Z,10.77
2019-01-25T19:18:18.927Z,10.43
2019-01-25T19:23:25.247Z,8.53
2019-01-25T19:28:30.992Z,9.27
2019-01-25T19:33:36.487Z,10.37
2019-01-25T19:38:42.115Z,9.23
2019-01-25T19:43:48.081Z,9.77
2019-01-25T19:48:54.808Z,9.53
2019-01-25T19:54:02.029Z,9.73
2019-01-25T19:59:08.072Z,9.97
2019-01-25T20:04:14.679Z,9.80
2019-01-25T20:09:21.476Z,10.53
2019-01-25T20:14:27.719Z,8.80
2019-01-25T20:19:34.124Z,9.70
2019-01-25T20:24:40.204Z,9.00
2019-01-25T20:29:46.110Z,10.17
2019-01-25T20:34:51.818Z,9.93
2019-01-25T20:39:57.600Z,9.70
2019-01-25T20:45:04.103Z,9.93
2019-01-25T20:50:13.664Z,10.20
2019-01-25T20:55:19.541Z,9.63
2019-01-25T21:00:31.191Z,9.43
2019-01-25T21:05:37.136Z,9.20
2019-01-25T21:10:43.201Z,9.37
2019-01-25T21:15:49.096Z,9.63
2019-01-25T21:20:54.807Z,9.27
2019-01-25T21:26:00.720Z,9.70
2019-01-25T21:31:06.272Z,9.53
2019-01-25T21:36:12.258Z,9.63
2019-01-25T21:41:18.092Z,9.37
2019-01-25T21:46:24.059Z,9.03
2019-01-25T21:51:30.047Z,9.33
2019-01-25T21:56:35.548Z,9.70
2019-01-25T22:01:40.848Z,9.90
2019-01-25T22:06:45.777Z,9.00
2019-01-25T22:11:50.644Z,10.37
2019-01-25T22:16:55.817Z,9.83
2019-01-25T22:22:00.631Z,9.97
2019-01-25T22:27:05.448Z,10.50
2019-01-25T22:32:10.264Z,9.20
2019-01-25T22:37:15.263Z,9.93
2019-01-25T22:42:20.122Z,10.60
2019-01-25T22:47:24.836Z,11.23
2019-01-25T22:52:29.621Z,10.23
2019-01-25T22:57:34.441Z,11.20
2019-01-25T23:02:39.476Z,10.57
2019-01-25T23:07:44.221Z,12.03
2019-01-25T23:12:49.433Z,10.07
2019-01-25T23:17:54.189Z,12.93
2019-01-25T23:22:59.013Z,11.80
2019-01-25T23:28:03.728Z,12.33
2019-01-25T23:33:08.533Z,12.13
2019-01-25T23:38:13.269Z,11.83
2019-01-25T23:43:17.975Z,11.90
2019-01-25T23:48:22.758Z,12.30
2019-01-25T23:53:27.568Z,12.60
2019-01-25T23:58:32.354Z,11.57
